createdAt,value
2018-09-17T00:01:35.346Z,17.56
2018-09-17T00:06:27.922Z,17.48
2018-09-17T00:11:20.547Z,17.37
2018-09-17T00:16:13.260Z,17.29
2018-09-17T00:21:05.884Z,17.25
2018-09-17T00:25:58.667Z,17.18
2018-09-17T00:30:51.419Z,17.12
2018-09-17T00:35:44.027Z,17.05
2018-09-17T00:40:36.533Z,16.96
2018-09-17T00:45:29.066Z,16.90
2018-09-17T00:50:21.838Z,16.85
2018-09-17T00:55:14.585Z,16.75
2018-09-17T01:00:07.144Z,16.67
2018-09-17T01:04:59.742Z,16.61
2018-09-17T01:09:52.405Z,16.51
2018-09-17T01:14:44.945Z,16.47
2018-09-17T01:19:37.574Z,16.39
2018-09-17T01:24:30.429Z,16.31
2018-09-17T01:29:23.214Z,16.24
2018-09-17T01:34:15.762Z,16.21
2018-09-17T01:39:09.324Z,16.20
2018-09-17T01:44:01.890Z,16.19
2018-09-17T01:48:54.450Z,16.08
2018-09-17T01:53:47.054Z,15.99
2018-09-17T01:58:39.599Z,15.97
2018-09-17T02:03:32.188Z,15.87
2018-09-17T02:08:24.760Z,15.79
2018-09-17T02:13:17.326Z,15.76
2018-09-17T02:18:09.891Z,15.68
2018-09-17T02:23:02.540Z,15.63
2018-09-17T02:27:55.347Z,15.61
2018-09-17T02:32:47.888Z,15.54
2018-09-17T02:37:40.474Z,15.48
2018-09-17T02:42:33.125Z,15.44
2018-09-17T02:47:25.761Z,15.40
2018-09-17T02:52:18.322Z,15.39
2018-09-17T02:57:10.852Z,15.32
2018-09-17T03:02:03.431Z,15.22
2018-09-17T03:06:56.057Z,15.19
2018-09-17T03:11:48.647Z,15.14
2018-09-17T03:16:58.953Z,15.07
2018-09-17T03:21:52.008Z,15.05
2018-09-17T03:26:44.628Z,14.97
2018-09-17T03:31:37.381Z,14.91
2018-09-17T03:36:29.938Z,14.87
2018-09-17T03:41:22.523Z,14.79
2018-09-17T03:46:15.347Z,14.74
2018-09-17T03:51:08.383Z,14.71
2018-09-17T03:56:01.012Z,14.69
2018-09-17T04:00:53.567Z,14.64
2018-09-17T04:05:46.175Z,14.63
2018-09-17T04:10:38.832Z,14.66
2018-09-17T04:15:31.478Z,14.65
2018-09-17T04:20:24.112Z,14.61
2018-09-17T04:25:16.718Z,14.61
2018-09-17T04:30:09.416Z,14.59
2018-09-17T04:35:02.707Z,14.61
2018-09-17T04:39:55.455Z,14.61
2018-09-17T04:44:48.073Z,14.61
2018-09-17T04:49:41.541Z,14.59
2018-09-17T04:54:34.191Z,14.57
2018-09-17T04:59:26.739Z,14.62
2018-09-17T05:04:19.240Z,14.61
2018-09-17T05:09:11.823Z,14.56
2018-09-17T05:14:04.462Z,14.52
2018-09-17T05:18:57.218Z,14.53
2018-09-17T05:23:49.894Z,14.55
2018-09-17T05:28:42.833Z,14.61
2018-09-17T05:33:35.443Z,14.67
2018-09-17T05:38:28.009Z,14.71
2018-09-17T05:43:20.571Z,14.75
2018-09-17T05:48:13.163Z,14.80
2018-09-17T05:53:05.943Z,14.87
2018-09-17T05:57:58.599Z,14.94
2018-09-17T06:02:51.148Z,15.00
2018-09-17T06:07:43.766Z,15.06
2018-09-17T06:12:36.432Z,15.10
2018-09-17T06:17:29.040Z,15.16
2018-09-17T06:22:21.590Z,15.51
2018-09-17T06:27:14.204Z,15.79
2018-09-17T06:32:06.785Z,15.82
2018-09-17T06:36:59.396Z,16.11
2018-09-17T06:41:51.949Z,16.69
2018-09-17T06:46:44.571Z,17.00
2018-09-17T06:51:37.224Z,16.97
2018-09-17T06:56:29.890Z,16.81
2018-09-17T07:01:22.489Z,16.87
2018-09-17T07:06:15.136Z,17.42
2018-09-17T07:11:08.373Z,18.15
2018-09-17T07:16:00.893Z,18.60
2018-09-17T07:20:53.627Z,18.77
2018-09-17T07:25:46.231Z,18.96
2018-09-17T07:30:38.790Z,19.14
2018-09-17T07:35:31.457Z,19.29
2018-09-17T07:40:24.054Z,19.30
2018-09-17T07:45:16.745Z,19.34
2018-09-17T07:50:09.384Z,19.55
2018-09-17T07:55:01.926Z,19.64
2018-09-17T07:59:54.484Z,19.67
2018-09-17T08:04:47.115Z,19.83
2018-09-17T08:09:39.843Z,19.97
2018-09-17T08:14:32.461Z,20.15
2018-09-17T08:19:25.043Z,20.26
2018-09-17T08:24:17.704Z,20.46
2018-09-17T08:29:10.339Z,20.53
2018-09-17T08:34:02.976Z,20.65
2018-09-17T08:38:55.576Z,20.80
2018-09-17T08:43:48.274Z,20.85
2018-09-17T08:48:40.947Z,20.89
2018-09-17T08:53:33.567Z,20.96
2018-09-17T08:58:30.966Z,21.05
2018-09-17T09:03:31.346Z,21.18
2018-09-17T09:08:23.966Z,21.34
2018-09-17T09:13:24.101Z,21.50
2018-09-17T09:18:16.742Z,21.59
2018-09-17T09:23:09.314Z,21.67
2018-09-17T09:28:04.341Z,21.82
2018-09-17T09:32:57.026Z,22.01
2018-09-17T09:37:49.928Z,22.28
2018-09-17T09:42:43.387Z,22.53
2018-09-17T09:47:35.934Z,22.84
2018-09-17T09:52:28.485Z,23.08
2018-09-17T09:57:21.158Z,23.28
2018-09-17T10:02:19.632Z,23.49
2018-09-17T10:07:12.231Z,23.74
2018-09-17T10:12:10.477Z,24.00
2018-09-17T10:17:08.817Z,24.18
2018-09-17T10:22:01.530Z,24.42
2018-09-17T10:26:54.083Z,24.62
2018-09-17T10:31:46.646Z,24.70
2018-09-17T10:36:39.134Z,24.82
2018-09-17T10:41:31.979Z,24.71
2018-09-17T10:46:24.589Z,24.69
2018-09-17T10:51:17.122Z,24.74
2018-09-17T10:56:09.787Z,24.79
2018-09-17T11:01:02.316Z,24.82
2018-09-17T11:05:54.875Z,24.90
2018-09-17T11:10:47.515Z,24.97
2018-09-17T11:15:47.395Z,25.04
2018-09-17T11:20:39.987Z,25.17
2018-09-17T11:25:32.621Z,25.29
2018-09-17T11:30:25.294Z,25.37
2018-09-17T11:35:17.866Z,25.51
2018-09-17T11:40:10.581Z,25.73
2018-09-17T11:45:03.293Z,25.98
2018-09-17T11:49:55.863Z,26.14
2018-09-17T11:54:48.655Z,26.36
2018-09-17T11:59:41.331Z,26.47
2018-09-17T12:04:40.040Z,26.54
2018-09-17T12:09:32.818Z,26.70
2018-09-17T12:14:25.645Z,26.84
2018-09-17T12:19:18.170Z,26.99
2018-09-17T12:24:10.897Z,27.17
2018-09-17T12:29:03.600Z,27.40
2018-09-17T12:33:56.276Z,27.69
2018-09-17T12:38:48.747Z,27.69
2018-09-17T12:43:41.470Z,27.67
2018-09-17T12:48:34.197Z,27.69
2018-09-17T12:53:26.844Z,27.86
2018-09-17T12:58:19.423Z,27.98
2018-09-17T13:03:12.081Z,27.96
2018-09-17T13:08:04.844Z,27.98
2018-09-17T13:12:57.634Z,28.09
2018-09-17T13:17:50.256Z,28.15
2018-09-17T13:22:42.818Z,28.26
2018-09-17T13:27:35.493Z,28.48
2018-09-17T13:32:28.187Z,28.56
2018-09-17T13:37:20.873Z,28.67
2018-09-17T13:42:13.471Z,28.64
2018-09-17T13:47:06.148Z,28.62
2018-09-17T13:51:58.867Z,28.55
2018-09-17T13:56:51.558Z,28.51
2018-09-17T14:01:44.256Z,28.48
2018-09-17T14:06:36.910Z,28.55
2018-09-17T14:11:29.591Z,28.70
2018-09-17T14:16:28.110Z,28.79
2018-09-17T14:21:20.718Z,28.87
2018-09-17T14:26:13.427Z,28.96
2018-09-17T14:31:06.233Z,28.84
2018-09-17T14:35:58.851Z,28.81
2018-09-17T14:40:51.460Z,28.72
2018-09-17T14:45:44.059Z,28.68
2018-09-17T14:50:36.644Z,28.67
2018-09-17T14:55:29.239Z,28.69
2018-09-17T15:00:21.838Z,28.67
2018-09-17T15:05:14.428Z,28.69
2018-09-17T15:10:07.071Z,28.77
2018-09-17T15:14:59.688Z,28.78
2018-09-17T15:19:52.350Z,28.69
2018-09-17T15:24:44.865Z,28.71
2018-09-17T15:29:37.595Z,28.68
2018-09-17T15:34:30.294Z,28.65
2018-09-17T15:39:22.801Z,28.53
2018-09-17T15:44:15.412Z,28.47
2018-09-17T15:49:08.007Z,28.44
2018-09-17T15:54:00.530Z,28.35
2018-09-17T15:58:53.075Z,28.23
2018-09-17T16:03:45.658Z,28.17
2018-09-17T16:08:38.297Z,28.15
2018-09-17T16:13:30.875Z,28.05
2018-09-17T16:18:23.431Z,27.95
2018-09-17T16:23:16.066Z,27.94
2018-09-17T16:28:08.777Z,27.86
2018-09-17T16:33:01.352Z,27.73
2018-09-17T16:37:54.252Z,27.59
2018-09-17T16:42:46.861Z,27.40
2018-09-17T16:47:39.456Z,27.22
2018-09-17T16:52:32.124Z,27.06
2018-09-17T16:57:24.746Z,26.91
2018-09-17T17:02:17.283Z,26.78
2018-09-17T17:07:09.947Z,26.66
2018-09-17T17:12:02.639Z,26.52
2018-09-17T17:16:55.111Z,26.41
2018-09-17T17:21:47.687Z,26.22
2018-09-17T17:26:40.310Z,26.07
2018-09-17T17:31:32.872Z,25.89
2018-09-17T17:36:25.678Z,25.73
2018-09-17T17:41:18.245Z,25.56
2018-09-17T17:46:10.960Z,25.46
2018-09-17T17:51:03.467Z,25.29
2018-09-17T17:55:56.222Z,25.14
2018-09-17T18:00:48.885Z,24.98
2018-09-17T18:05:41.408Z,24.84
2018-09-17T18:10:34.040Z,24.69
2018-09-17T18:15:26.575Z,24.54
2018-09-17T18:20:19.181Z,24.44
2018-09-17T18:25:11.816Z,24.28
2018-09-17T18:30:04.505Z,24.18
2018-09-17T18:34:57.303Z,24.07
2018-09-17T18:39:49.849Z,23.92
2018-09-17T18:44:42.531Z,23.77
2018-09-17T18:49:35.132Z,23.67
2018-09-17T18:54:27.684Z,23.57
2018-09-17T18:59:20.560Z,23.44
2018-09-17T19:04:13.216Z,23.32
2018-09-17T19:09:07.125Z,23.27
2018-09-17T19:14:05.405Z,23.20
2018-09-17T19:18:58.041Z,23.10
2018-09-17T19:23:56.555Z,23.05
2018-09-17T19:28:54.827Z,22.98
2018-09-17T19:33:47.462Z,22.88
2018-09-17T19:38:46.092Z,22.80
2018-09-17T19:43:38.597Z,22.71
2018-09-17T19:48:31.246Z,22.61
2018-09-17T19:53:23.844Z,22.47
2018-09-17T19:58:22.336Z,22.35
2018-09-17T20:03:15.139Z,22.23
2018-09-17T20:08:07.703Z,22.13
2018-09-17T20:13:00.313Z,22.06
2018-09-17T20:17:52.848Z,21.97
2018-09-17T20:22:45.374Z,21.88
2018-09-17T20:27:37.931Z,21.78
2018-09-17T20:32:30.493Z,21.68
2018-09-17T20:37:23.071Z,21.60
2018-09-17T20:42:15.818Z,21.50
2018-09-17T20:47:08.575Z,21.39
2018-09-17T20:52:01.208Z,21.32
2018-09-17T20:56:53.836Z,21.26
2018-09-17T21:01:46.765Z,21.21
2018-09-17T21:12:04.229Z,21.08
2018-09-17T21:16:56.660Z,21.00
2018-09-17T21:21:49.520Z,20.91
2018-09-17T21:26:42.177Z,20.81
2018-09-17T21:31:34.771Z,20.75
2018-09-17T21:36:27.555Z,20.66
2018-09-17T21:41:20.320Z,20.58
2018-09-17T21:46:12.932Z,20.51
2018-09-17T21:51:05.555Z,20.41
2018-09-17T21:55:58.184Z,20.37
2018-09-17T22:00:56.713Z,20.32
2018-09-17T22:05:49.341Z,20.28
2018-09-17T22:10:41.910Z,20.25
2018-09-17T22:15:34.531Z,20.18
2018-09-17T22:20:27.283Z,20.11
2018-09-17T22:25:19.974Z,20.05
2018-09-17T22:30:12.636Z,20.01
2018-09-17T22:35:05.263Z,19.96
2018-09-17T22:39:57.892Z,19.90
2018-09-17T22:44:50.516Z,19.82
2018-09-17T22:49:43.098Z,19.73
2018-09-17T22:54:35.695Z,19.66
2018-09-17T22:59:28.296Z,19.61
2018-09-17T23:04:20.866Z,19.57
2018-09-17T23:09:13.508Z,19.49
2018-09-17T23:14:06.081Z,19.48
2018-09-17T23:18:58.766Z,19.40
2018-09-17T23:23:51.450Z,19.31
2018-09-17T23:28:44.187Z,19.24
2018-09-17T23:33:36.755Z,19.22
2018-09-17T23:38:29.335Z,19.18
2018-09-17T23:43:21.938Z,19.13
2018-09-17T23:48:14.531Z,19.09
2018-09-17T23:53:07.181Z,19.04
2018-09-17T23:57:59.741Z,19.00
